Time;durP1;ratioP1;P1;durP2;ratioP2;P2;SDS_P1;SDS_P2;PMS_P1;PMS_P2;Temp;Humidity;BMP_temperature;BMP_pressure;BME280_temperature;BME280_humidity;BME280_pressure;Samples;Min_cycle;Max_cycle;Signal;HPM_P1;HPM_P2
2023/06/11 16:14:03;;;;;;;6.00;5.60;;;29.70;49.90;;;;;;6125011;23;20566;-69
2023/06/11 16:16:31;;;;;;;5.90;5.40;;;29.30;51.50;;;;;;6123745;23;20444;-69
2023/06/11 16:18:58;;;;;;;5.27;4.80;;;29.20;50.30;;;;;;6121159;23;20521;-69
2023/06/11 16:21:25;;;;;;;5.13;4.83;;;29.20;50.50;;;;;;6094229;23;20464;-69
2023/06/11 16:23:52;;;;;;;5.37;5.00;;;29.10;50.80;;;;;;6094534;23;20449;-69
2023/06/11 16:26:19;;;;;;;5.63;5.23;;;28.90;51.10;;;;;;6088945;23;20429;-70
2023/06/11 16:28:46;;;;;;;5.83;5.30;;;28.90;51.10;;;;;;6096426;23;20479;-70
2023/06/11 16:31:15;;;;;;;5.60;5.10;;;28.90;50.90;;;;;;6092283;23;20465;-70
2023/06/11 16:33:42;;;;;;;5.23;4.83;;;29.00;51.10;;;;;;6092873;23;20462;-70
2023/06/11 16:36:09;;;;;;;5.33;4.93;;;29.10;50.50;;;;;;6093411;23;20434;-72
2023/06/11 16:38:36;;;;;;;5.57;5.07;;;29.20;50.40;;;;;;6094454;23;20521;-71
2023/06/11 16:41:03;;;;;;;5.23;4.93;;;29.30;50.60;;;;;;6098907;23;20965;-87
2023/06/11 16:43:30;;;;;;;5.77;5.37;;;29.20;51.10;;;;;;6096680;23;20511;-86
2023/06/11 16:45:58;;;;;;;5.90;5.50;;;29.10;51.50;;;;;;6096571;23;20487;-87
2023/06/11 16:48:26;;;;;;;5.23;4.93;;;29.20;50.00;;;;;;6096041;23;20469;-71
2023/06/11 16:50:53;;;;;;;5.20;4.90;;;29.00;49.80;;;;;;6093298;23;20540;-70
2023/06/11 16:53:20;;;;;;;5.80;5.40;;;28.90;50.30;;;;;;6082759;23;20836;-71
2023/06/11 16:55:47;;;;;;;5.73;5.33;;;28.70;51.20;;;;;;6095671;23;20664;-70
2023/06/11 16:58:15;;;;;;;5.63;5.23;;;28.60;50.60;;;;;;6086823;23;20918;-71
2023/06/11 17:00:43;;;;;;;5.80;5.30;;;28.50;51.20;;;;;;6091880;23;20510;-70
2023/06/11 17:03:10;;;;;;;5.37;4.97;;;28.40;51.80;;;;;;6087841;23;20444;-71
2023/06/11 17:05:39;;;;;;;5.23;4.83;;;28.40;51.90;;;;;;6091889;23;20433;-70
2023/06/11 17:08:06;;;;;;;5.47;5.00;;;28.40;52.40;;;;;;6093118;23;20438;-70
2023/06/11 17:10:34;;;;;;;5.70;5.27;;;28.40;52.40;;;;;;6090205;23;20450;-70
2023/06/11 17:13:01;;;;;;;5.73;5.33;;;28.40;52.90;;;;;;6093735;23;21026;-71
2023/06/11 17:15:28;;;;;;;5.83;5.47;;;28.40;52.00;;;;;;6079883;23;20434;-71
2023/06/11 17:17:57;;;;;;;5.33;4.87;;;28.40;51.40;;;;;;6089801;23;20505;-71
2023/06/11 17:20:26;;;;;;;5.97;5.57;;;28.20;52.40;;;;;;6083949;23;20465;-70
2023/06/11 17:22:54;;;;;;;5.20;4.80;;;28.10;52.20;;;;;;6095468;23;20505;-71
2023/06/11 17:25:23;;;;;;;5.90;5.50;;;28.10;52.30;;;;;;6087025;23;20435;-70
2023/06/11 17:27:50;;;;;;;5.97;5.57;;;27.90;51.90;;;;;;6083341;23;20440;-70
2023/06/11 17:30:17;;;;;;;5.30;5.00;;;27.90;52.00;;;;;;6078026;23;20456;-70
2023/06/11 17:32:45;;;;;;;5.30;4.90;;;27.80;52.10;;;;;;6079023;23;20537;-70
2023/06/11 17:35:12;;;;;;;5.20;4.80;;;27.80;51.90;;;;;;6079499;23;20457;-70
2023/06/11 17:37:39;;;;;;;4.93;4.53;;;27.80;52.00;;;;;;6076776;23;20439;-70
2023/06/11 17:40:08;;;;;;;4.97;4.67;;;27.60;51.70;;;;;;6083248;23;20493;-70
2023/06/11 17:42:40;;;;;;;5.00;4.70;;;27.50;52.10;;;;;;6084599;23;20430;-70
2023/06/11 17:45:09;;;;;;;5.00;4.60;;;27.40;51.50;;;;;;6081154;23;20435;-70
2023/06/11 17:47:36;;;;;;;4.73;4.40;;;27.30;51.50;;;;;;6085015;23;20438;-70
2023/06/11 17:50:04;;;;;;;5.00;4.70;;;27.20;52.30;;;;;;6083241;23;20450;-71
2023/06/11 17:52:31;;;;;;;5.20;4.80;;;27.20;52.30;;;;;;6083345;23;20458;-72
2023/06/11 17:54:58;;;;;;;5.40;5.00;;;27.10;52.10;;;;;;6080874;23;20497;-70
2023/06/11 17:57:26;;;;;;;5.00;4.50;;;27.10;52.30;;;;;;6072253;23;20489;-71
2023/06/11 17:59:53;;;;;;;5.00;4.70;;;27.10;53.00;;;;;;6076394;23;20458;-71
2023/06/11 18:02:20;;;;;;;4.53;4.23;;;27.10;53.10;;;;;;6090981;23;20563;-71
2023/06/11 18:04:47;;;;;;;4.83;4.43;;;27.00;53.10;;;;;;6086014;23;20434;-72
2023/06/11 18:07:14;;;;;;;4.50;4.20;;;27.00;52.20;;;;;;6085260;23;20446;-72
2023/06/11 18:09:41;;;;;;;4.80;4.40;;;26.80;52.90;;;;;;6084777;23;20504;-71
2023/06/11 18:12:08;;;;;;;4.80;4.43;;;26.80;52.50;;;;;;6087328;23;20534;-72
2023/06/11 18:14:37;;;;;;;4.80;4.40;;;26.70;52.70;;;;;;6083329;23;20545;-71
2023/06/11 18:17:05;;;;;;;4.93;4.53;;;26.70;52.80;;;;;;6082168;23;20505;-72
2023/06/11 18:19:32;;;;;;;5.13;4.73;;;26.70;53.30;;;;;;6083090;23;20450;-71
2023/06/11 18:22:00;;;;;;;4.97;4.57;;;26.60;53.60;;;;;;6080848;23;20442;-71
2023/06/11 18:24:28;;;;;;;4.80;4.50;;;26.60;53.20;;;;;;6085341;23;20484;-72
2023/06/11 18:26:55;;;;;;;5.47;5.13;;;26.60;53.50;;;;;;6084812;23;20437;-72
2023/06/11 18:29:22;;;;;;;5.60;5.13;;;26.60;53.50;;;;;;6081924;23;20494;-71
2023/06/11 18:31:50;;;;;;;4.80;4.50;;;26.50;55.00;;;;;;6084566;23;20518;-71
2023/06/11 18:34:17;;;;;;;4.80;4.50;;;26.60;53.40;;;;;;6087290;23;20525;-71
2023/06/11 18:36:45;;;;;;;5.50;5.10;;;26.60;54.00;;;;;;6084009;23;20438;-71
2023/06/11 18:39:13;;;;;;;5.03;4.70;;;26.60;53.80;;;;;;6083832;23;20450;-71
2023/06/11 18:41:40;;;;;;;5.00;4.60;;;26.60;53.80;;;;;;6088172;23;20473;-70
2023/06/11 18:44:07;;;;;;;4.83;4.43;;;26.50;53.80;;;;;;6086579;23;20584;-69
2023/06/11 18:46:34;;;;;;;4.80;4.50;;;26.50;54.20;;;;;;6087457;23;20438;-69
2023/06/11 18:49:02;;;;;;;5.77;4.30;;;26.50;54.00;;;;;;6084459;23;20466;-69
2023/06/11 18:51:29;;;;;;;5.10;4.60;;;26.50;53.60;;;;;;6087448;23;20898;-69
2023/06/11 18:53:57;;;;;;;4.43;4.17;;;26.50;54.00;;;;;;6082767;23;20462;-70
2023/06/11 18:56:24;;;;;;;5.10;4.80;;;26.40;53.60;;;;;;6082630;23;20445;-70
2023/06/11 18:58:52;;;;;;;5.10;4.70;;;26.30;54.00;;;;;;6084330;23;20798;-70
2023/06/11 19:01:18;;;;;;;5.23;4.80;;;26.30;54.50;;;;;;6086491;23;20462;-69
2023/06/11 19:03:45;;;;;;;4.97;4.67;;;26.20;54.00;;;;;;6080414;23;20790;-70
2023/06/11 19:06:14;;;;;;;5.20;4.77;;;26.10;54.20;;;;;;6084993;23;20843;-70
2023/06/11 19:08:41;;;;;;;5.37;4.97;;;26.10;53.90;;;;;;6083189;23;20445;-69
2023/06/11 19:11:08;;;;;;;4.60;4.33;;;26.00;54.20;;;;;;6084755;23;20934;-69
2023/06/11 19:13:39;;;;;;;5.37;4.97;;;25.90;54.70;;;;;;6082865;23;20470;-69
2023/06/11 19:16:06;;;;;;;4.50;4.20;;;25.80;54.70;;;;;;6086944;23;20456;-70
2023/06/11 19:18:33;;;;;;;5.20;4.90;;;25.70;55.40;;;;;;6084914;23;20461;-70
2023/06/11 19:21:00;;;;;;;5.50;5.00;;;25.70;55.90;;;;;;6084594;23;20859;-70
2023/06/11 19:23:29;;;;;;;5.60;5.30;;;25.60;56.60;;;;;;6081199;23;20494;-69
2023/06/11 19:25:55;;;;;;;5.07;4.77;;;25.40;57.10;;;;;;6080024;23;20444;-70
2023/06/11 19:28:23;;;;;;;4.63;4.23;;;25.30;57.60;;;;;;6087296;23;20442;-70
2023/06/11 19:30:50;;;;;;;5.20;4.73;;;25.30;58.20;;;;;;6084624;23;20457;-70
2023/06/11 19:33:17;;;;;;;5.07;4.70;;;25.10;58.60;;;;;;6081647;23;20470;-70
2023/06/11 19:35:44;;;;;;;5.20;4.80;;;25.00;59.10;;;;;;6080273;23;20503;-70
2023/06/11 19:38:11;;;;;;;6.07;5.33;;;25.00;59.70;;;;;;6083422;23;21272;-69
2023/06/11 19:40:39;;;;;;;5.73;5.33;;;24.90;60.20;;;;;;6084816;23;20504;-70
2023/06/11 19:43:06;;;;;;;5.40;5.00;;;24.80;60.70;;;;;;6083178;23;20794;-70
2023/06/11 19:45:33;;;;;;;6.60;5.40;;;24.70;61.00;;;;;;6081928;23;20463;-70
2023/06/11 19:48:00;;;;;;;6.13;5.73;;;24.60;61.20;;;;;;6082485;23;20437;-70
2023/06/11 19:50:28;;;;;;;6.17;5.70;;;24.50;61.50;;;;;;6086302;23;20534;-69
2023/06/11 19:52:54;;;;;;;5.47;5.07;;;24.50;62.00;;;;;;6083207;23;20513;-73
2023/06/11 19:55:23;;;;;;;5.60;5.10;;;24.50;62.20;;;;;;6089278;23;20512;-73
2023/06/11 19:57:51;;;;;;;5.50;5.07;;;24.40;62.50;;;;;;6088741;23;20433;-73
2023/06/11 20:00:19;;;;;;;5.63;5.23;;;24.40;62.90;;;;;;6086511;23;20450;-75
2023/06/11 20:02:46;;;;;;;5.60;5.20;;;24.40;63.60;;;;;;6075825;23;20453;-74
2023/06/11 20:05:13;;;;;;;5.47;5.17;;;24.30;63.70;;;;;;6084448;23;20940;-74
2023/06/11 20:07:40;;;;;;;5.50;5.03;;;24.20;63.90;;;;;;6083848;23;20987;-74
2023/06/11 20:10:08;;;;;;;6.07;5.60;;;24.20;64.00;;;;;;6082767;23;20740;-74
2023/06/11 20:12:35;;;;;;;5.57;5.17;;;24.20;64.50;;;;;;6083748;23;20499;-74
2023/06/11 20:15:04;;;;;;;5.63;5.23;;;24.10;64.40;;;;;;6082681;23;20498;-74
2023/06/11 20:17:31;;;;;;;5.00;4.70;;;24.10;64.60;;;;;;6087107;23;21371;-74
2023/06/11 20:19:59;;;;;;;6.47;5.87;;;24.00;64.70;;;;;;6086933;23;20476;-74
2023/06/11 20:22:26;;;;;;;5.43;4.97;;;24.00;65.00;;;;;;6086701;23;20435;-74
2023/06/11 20:24:53;;;;;;;5.50;5.10;;;24.00;65.20;;;;;;6072124;23;20961;-74
2023/06/11 20:27:20;;;;;;;6.20;5.13;;;23.90;65.20;;;;;;6077847;23;20517;-74
2023/06/11 20:29:47;;;;;;;5.53;5.10;;;23.90;65.60;;;;;;6085522;23;20570;-74
2023/06/11 20:32:16;;;;;;;5.63;5.23;;;23.80;65.50;;;;;;6084259;23;20484;-74
2023/06/11 20:34:44;;;;;;;5.60;5.27;;;23.80;65.70;;;;;;6085388;23;20606;-74
2023/06/11 20:37:11;;;;;;;5.13;4.80;;;23.70;66.00;;;;;;6080491;23;20465;-73
2023/06/11 20:39:38;;;;;;;6.20;5.70;;;23.60;66.00;;;;;;6084523;23;20534;-73
2023/06/11 20:42:06;;;;;;;5.23;4.93;;;23.60;66.50;;;;;;6084430;23;20435;-74
2023/06/11 20:44:33;;;;;;;5.60;5.20;;;23.50;66.40;;;;;;6080518;23;20437;-73
2023/06/11 20:47:00;;;;;;;6.00;5.60;;;23.50;66.30;;;;;;6090571;23;20441;-73
2023/06/11 20:49:29;;;;;;;5.40;5.00;;;23.40;66.30;;;;;;6082207;23;20517;-73
2023/06/11 20:51:56;;;;;;;5.17;4.87;;;23.40;66.40;;;;;;6081833;23;20458;-73
2023/06/11 20:54:22;;;;;;;5.30;5.00;;;23.30;66.30;;;;;;6084339;23;20512;-73
2023/06/11 20:56:50;;;;;;;5.57;5.17;;;23.30;66.30;;;;;;6084669;23;20439;-73
2023/06/11 20:59:17;;;;;;;5.33;4.93;;;23.30;66.60;;;;;;6085597;23;20998;-73
2023/06/11 21:01:44;;;;;;;5.27;4.97;;;23.20;66.30;;;;;;6083371;23;20470;-73
2023/06/11 21:04:11;;;;;;;5.10;4.70;;;23.20;66.30;;;;;;6092614;23;20495;-73
2023/06/11 21:06:40;;;;;;;5.70;5.20;;;23.10;66.60;;;;;;6084418;23;20463;-73
2023/06/11 21:09:08;;;;;;;5.80;5.30;;;23.10;67.40;;;;;;6082190;23;20529;-73
2023/06/11 21:11:35;;;;;;;5.43;5.00;;;23.10;66.80;;;;;;6086562;23;21007;-73
2023/06/11 21:14:02;;;;;;;5.83;5.40;;;23.00;66.50;;;;;;6090098;23;20500;-73
2023/06/11 21:16:29;;;;;;;5.53;4.97;;;23.00;66.90;;;;;;6089916;23;20484;-73
2023/06/11 21:18:57;;;;;;;5.30;5.00;;;22.90;66.80;;;;;;6079358;23;20530;-73
2023/06/11 21:21:24;;;;;;;5.40;5.00;;;22.80;67.00;;;;;;6092264;23;20445;-73
2023/06/11 21:23:52;;;;;;;6.17;5.77;;;22.80;67.00;;;;;;6086421;23;21013;-73
2023/06/11 21:26:19;;;;;;;5.73;5.33;;;22.80;67.30;;;;;;6087438;23;20580;-73
2023/06/11 21:28:46;;;;;;;6.00;5.60;;;22.80;67.60;;;;;;6082692;23;20561;-73
2023/06/11 21:31:13;;;;;;;5.67;5.23;;;22.70;67.40;;;;;;6088102;23;20432;-73
2023/06/11 21:33:40;;;;;;;5.57;5.10;;;22.70;67.60;;;;;;6090417;23;20488;-73
2023/06/11 21:36:07;;;;;;;5.83;5.40;;;22.60;67.40;;;;;;6081279;23;20915;-73
2023/06/11 21:38:34;;;;;;;5.73;5.23;;;22.60;67.40;;;;;;6089848;23;20462;-73
2023/06/11 21:41:03;;;;;;;5.73;5.33;;;22.50;66.90;;;;;;6088473;23;20509;-73
2023/06/11 21:43:30;;;;;;;5.10;4.80;;;22.50;66.50;;;;;;6088239;23;20466;-73
2023/06/11 21:45:58;;;;;;;5.73;5.40;;;22.40;66.60;;;;;;6083485;23;20518;-73
2023/06/11 21:48:25;;;;;;;5.03;4.63;;;22.30;66.70;;;;;;6087826;23;20434;-73
2023/06/11 21:50:52;;;;;;;5.00;4.70;;;22.30;66.30;;;;;;6089268;23;20671;-73
2023/06/11 21:53:20;;;;;;;4.93;4.63;;;22.20;66.10;;;;;;6083699;23;20527;-73
2023/06/11 21:55:47;;;;;;;4.70;4.27;;;22.10;66.30;;;;;;6087424;23;20462;-73
2023/06/11 21:58:16;;;;;;;5.33;5.03;;;22.00;66.50;;;;;;6088820;23;20512;-73
2023/06/11 22:00:43;;;;;;;5.10;4.70;;;22.00;66.70;;;;;;6088919;23;20453;-73
2023/06/11 22:03:10;;;;;;;5.70;5.20;;;22.00;66.80;;;;;;6086870;23;20847;-73
2023/06/11 22:05:37;;;;;;;5.43;4.93;;;21.90;67.00;;;;;;6079624;23;20917;-73
2023/06/11 22:08:05;;;;;;;4.97;4.57;;;21.90;67.30;;;;;;6088211;23;20528;-73
2023/06/11 22:10:32;;;;;;;5.03;4.63;;;21.90;67.60;;;;;;6088569;23;20438;-73
2023/06/11 22:12:59;;;;;;;5.47;5.07;;;21.80;67.80;;;;;;6089003;23;20876;-73
2023/06/11 22:15:28;;;;;;;5.27;4.87;;;21.70;68.10;;;;;;6088366;23;20825;-73
2023/06/11 22:17:55;;;;;;;5.67;5.20;;;21.60;68.50;;;;;;6088811;23;20520;-73
2023/06/11 22:20:25;;;;;;;4.90;4.60;;;21.50;68.90;;;;;;6090161;23;20468;-72
2023/06/11 22:22:52;;;;;;;5.47;5.07;;;21.40;69.10;;;;;;6091663;23;20995;-72
2023/06/11 22:25:19;;;;;;;5.13;4.77;;;21.40;69.40;;;;;;6089325;23;20441;-72
2023/06/11 22:27:46;;;;;;;4.60;4.30;;;21.30;69.50;;;;;;6086387;23;20441;-72
2023/06/11 22:30:13;;;;;;;4.70;4.40;;;21.20;69.70;;;;;;6084929;23;20963;-73
2023/06/11 22:32:42;;;;;;;5.03;4.63;;;21.10;69.60;;;;;;6087189;23;20767;-72
2023/06/11 22:35:09;;;;;;;5.23;4.90;;;21.10;69.80;;;;;;6087748;23;20557;-73
2023/06/11 22:37:36;;;;;;;5.13;4.73;;;21.00;69.90;;;;;;6094367;23;20430;-73
2023/06/11 22:40:05;;;;;;;4.90;4.60;;;21.00;70.10;;;;;;6083521;23;20540;-73
2023/06/11 22:42:32;;;;;;;5.70;5.30;;;20.90;70.20;;;;;;6089861;23;20431;-72
2023/06/11 22:44:59;;;;;;;5.03;4.70;;;20.90;70.30;;;;;;6087236;23;20438;-73
2023/06/11 22:47:27;;;;;;;5.20;4.80;;;20.90;70.70;;;;;;6089981;23;20941;-73
2023/06/11 22:49:56;;;;;;;5.13;4.83;;;20.80;70.60;;;;;;6086740;23;21138;-73
2023/06/11 22:52:23;;;;;;;5.87;5.27;;;20.80;70.60;;;;;;6088280;23;20437;-73
2023/06/11 22:54:51;;;;;;;5.57;5.17;;;20.80;70.90;;;;;;6085123;23;20464;-73
2023/06/11 22:57:18;;;;;;;5.37;5.00;;;20.70;71.00;;;;;;6090371;23;20931;-73
2023/06/11 22:59:44;;;;;;;5.23;4.87;;;20.70;71.30;;;;;;6089474;23;20859;-73
2023/06/11 23:02:12;;;;;;;5.90;5.50;;;20.70;71.70;;;;;;6077924;23;20876;-73
2023/06/11 23:04:39;;;;;;;5.20;4.90;;;20.70;72.40;;;;;;6080238;23;20439;-73
2023/06/11 23:07:07;;;;;;;4.77;4.47;;;20.70;72.50;;;;;;6088129;23;20439;-73
2023/06/11 23:09:34;;;;;;;5.57;5.17;;;20.60;72.90;;;;;;6088022;23;20458;-73
2023/06/11 23:12:01;;;;;;;5.23;4.83;;;20.50;73.30;;;;;;6081046;23;20857;-73
2023/06/11 23:14:28;;;;;;;5.30;4.93;;;20.40;73.80;;;;;;6089326;23;20460;-73
2023/06/11 23:16:58;;;;;;;5.40;5.00;;;20.30;74.10;;;;;;6089283;23;20466;-73
2023/06/11 23:19:25;;;;;;;5.33;4.93;;;20.30;74.50;;;;;;6087103;23;20509;-73
2023/06/11 23:21:55;;;;;;;5.13;4.73;;;20.20;74.60;;;;;;6085208;23;20550;-73
2023/06/11 23:24:26;;;;;;;6.47;4.83;;;20.20;74.90;;;;;;6087962;23;20438;-73
2023/06/11 23:26:55;;;;;;;5.63;5.23;;;20.10;75.00;;;;;;6089098;23;20443;-73
2023/06/11 23:29:23;;;;;;;5.80;5.40;;;20.10;75.20;;;;;;6088721;23;20459;-74
2023/06/11 23:31:51;;;;;;;5.53;5.13;;;20.10;75.30;;;;;;6084111;23;20519;-73
2023/06/11 23:34:18;;;;;;;5.17;4.67;;;20.10;75.70;;;;;;6085405;23;20545;-73
2023/06/11 23:36:46;;;;;;;5.13;4.83;;;20.00;75.90;;;;;;6084778;23;20750;-73
2023/06/11 23:39:14;;;;;;;5.60;5.20;;;20.00;76.30;;;;;;6086933;23;20466;-73
2023/06/11 23:41:43;;;;;;;4.90;4.60;;;20.00;76.40;;;;;;6089098;23;20522;-73
2023/06/11 23:44:11;;;;;;;5.50;5.10;;;19.90;76.70;;;;;;6088542;23;20439;-73
2023/06/11 23:46:38;;;;;;;5.27;4.97;;;19.90;76.80;;;;;;6082817;23;21029;-73
2023/06/11 23:49:05;;;;;;;5.73;5.33;;;19.80;77.00;;;;;;6083948;23;20550;-73
2023/06/11 23:51:33;;;;;;;5.07;4.77;;;19.80;77.40;;;;;;6087870;23;20476;-73
2023/06/11 23:54:00;;;;;;;5.70;5.30;;;19.80;78.00;;;;;;6087845;23;20435;-73
2023/06/11 23:56:29;;;;;;;5.10;4.80;;;19.70;78.10;;;;;;6091590;23;20538;-72
2023/06/11 23:58:58;;;;;;;5.90;5.50;;;19.70;78.50;;;;;;6095075;23;20497;-73
